Time;durP1;ratioP1;P1;durP2;ratioP2;P2;SDS_P1;SDS_P2;PMS_P1;PMS_P2;Temp;Humidity;BMP_temperature;BMP_pressure;BME280_temperature;BME280_humidity;BME280_pressure;Samples;Min_cycle;Max_cycle;Signal;HPM_P1;HPM_P2
2024/02/27 00:02:00;;;;;;;1.90;0.70;;;11.50;99.90;;;;;;5041790;28;20229;-61
2024/02/27 00:04:27;;;;;;;0.80;0.60;;;11.40;99.90;;;;;;5044978;28;20312;-61
2024/02/27 00:06:55;;;;;;;1.30;0.43;;;11.30;99.90;;;;;;5045555;28;20585;-61
2024/02/27 00:09:24;;;;;;;0.83;0.60;;;11.20;99.90;;;;;;5042763;28;20220;-62
2024/02/27 00:11:51;;;;;;;0.50;0.43;;;11.20;99.90;;;;;;5041740;28;20210;-61
2024/02/27 00:14:18;;;;;;;1.50;0.60;;;11.10;99.90;;;;;;5043478;28;20227;-61
2024/02/27 00:16:44;;;;;;;0.30;0.30;;;11.10;99.90;;;;;;5045376;28;20202;-61
2024/02/27 00:19:12;;;;;;;0.93;0.50;;;11.30;99.90;;;;;;5044497;28;20213;-61
2024/02/27 00:21:39;;;;;;;0.73;0.50;;;11.30;99.90;;;;;;5041390;28;20588;-61
2024/02/27 00:24:06;;;;;;;0.53;0.50;;;11.50;99.90;;;;;;5041444;28;20607;-61
2024/02/27 00:26:33;;;;;;;0.80;0.60;;;11.50;99.90;;;;;;5033846;28;20206;-59
2024/02/27 00:29:00;;;;;;;1.00;0.70;;;11.60;99.90;;;;;;5041743;28;20213;-60
2024/02/27 00:31:26;;;;;;;0.70;0.60;;;11.70;99.90;;;;;;5044152;28;20246;-60
2024/02/27 00:33:53;;;;;;;1.60;0.60;;;11.80;99.90;;;;;;5044950;28;20217;-60
2024/02/27 00:36:21;;;;;;;0.60;0.40;;;11.80;99.90;;;;;;5042944;28;20671;-58
2024/02/27 00:38:48;;;;;;;0.70;0.70;;;11.80;99.90;;;;;;5041197;28;20639;-58
2024/02/27 00:41:15;;;;;;;1.23;0.80;;;11.80;99.90;;;;;;5042388;28;20210;-60
2024/02/27 00:43:42;;;;;;;0.93;0.43;;;11.70;99.90;;;;;;5044529;28;20304;-60
2024/02/27 00:46:08;;;;;;;0.77;0.57;;;11.50;99.90;;;;;;5044216;28;20210;-60
2024/02/27 00:48:35;;;;;;;0.60;0.50;;;11.40;99.90;;;;;;5041061;28;20627;-60
2024/02/27 00:51:02;;;;;;;0.70;0.60;;;11.50;99.90;;;;;;5041043;28;20668;-60
2024/02/27 00:53:30;;;;;;;0.40;0.40;;;11.50;99.90;;;;;;5044055;28;20221;-59
2024/02/27 00:55:57;;;;;;;0.87;0.63;;;11.40;99.90;;;;;;5044595;28;20240;-60
2024/02/27 00:58:24;;;;;;;1.20;0.50;;;11.30;99.90;;;;;;5042046;28;20628;-60
2024/02/27 01:00:51;;;;;;;0.63;0.60;;;11.20;99.90;;;;;;5041244;28;20293;-60
2024/02/27 01:03:17;;;;;;;0.50;0.50;;;11.10;99.90;;;;;;5041775;28;20287;-60
2024/02/27 01:05:44;;;;;;;1.30;0.60;;;11.10;99.90;;;;;;5043983;28;20643;-60
2024/02/27 01:08:10;;;;;;;1.47;0.90;;;11.00;99.90;;;;;;5043840;28;20625;-58
2024/02/27 01:10:38;;;;;;;0.90;0.70;;;11.00;99.90;;;;;;5040756;28;20701;-60
2024/02/27 01:13:05;;;;;;;2.37;1.10;;;11.00;99.90;;;;;;5040457;28;20229;-60
2024/02/27 01:15:32;;;;;;;1.60;0.93;;;11.00;99.90;;;;;;5044414;28;20212;-60
2024/02/27 01:17:58;;;;;;;1.80;1.30;;;11.00;99.90;;;;;;5044142;28;20261;-60
2024/02/27 01:20:25;;;;;;;2.30;1.90;;;11.00;99.90;;;;;;5041395;28;20216;-60
2024/02/27 01:22:52;;;;;;;2.37;1.80;;;11.00;99.90;;;;;;5040048;28;20250;-61
2024/02/27 01:25:19;;;;;;;2.50;1.70;;;11.00;99.90;;;;;;5041901;28;20652;-60
2024/02/27 01:27:47;;;;;;;2.80;2.20;;;11.00;99.90;;;;;;5044044;28;20205;-61
2024/02/27 01:30:14;;;;;;;3.63;2.10;;;10.90;99.90;;;;;;5043030;28;20205;-61
2024/02/27 01:32:41;;;;;;;2.73;2.23;;;10.90;99.90;;;;;;5040203;28;20206;-61
2024/02/27 01:35:08;;;;;;;3.13;2.50;;;10.80;99.90;;;;;;5040390;28;20238;-61
2024/02/27 01:37:35;;;;;;;5.23;2.67;;;10.60;99.90;;;;;;5032343;28;20199;-60
2024/02/27 01:40:04;;;;;;;3.83;2.97;;;10.50;99.90;;;;;;5040545;28;20213;-61
2024/02/27 01:42:30;;;;;;;5.07;3.37;;;10.50;99.90;;;;;;5042919;28;20221;-61
2024/02/27 01:44:58;;;;;;;3.70;3.27;;;10.40;99.90;;;;;;5043750;28;20593;-59
2024/02/27 01:47:26;;;;;;;4.20;3.50;;;10.40;99.90;;;;;;5041160;28;20232;-60
2024/02/27 01:49:53;;;;;;;4.43;3.23;;;10.40;99.90;;;;;;5040475;28;20198;-61
2024/02/27 01:52:22;;;;;;;5.03;3.80;;;10.30;99.90;;;;;;5041405;28;20206;-61
2024/02/27 01:54:52;;;;;;;4.50;3.60;;;10.30;99.90;;;;;;5043434;28;20856;-60
2024/02/27 01:57:20;;;;;;;5.33;3.53;;;10.20;99.90;;;;;;5042077;28;20224;-60
2024/02/27 01:59:48;;;;;;;4.23;3.53;;;10.30;99.90;;;;;;5039936;28;20213;-60
2024/02/27 02:02:16;;;;;;;6.03;3.97;;;10.30;99.90;;;;;;5040417;28;20218;-60
2024/02/27 02:04:43;;;;;;;4.47;3.97;;;10.40;99.90;;;;;;5043174;28;20278;-61
2024/02/27 02:07:10;;;;;;;5.03;4.00;;;10.40;99.90;;;;;;5042941;28;20671;-61
2024/02/27 02:09:37;;;;;;;5.03;4.03;;;10.40;99.90;;;;;;5039942;28;20237;-61
2024/02/27 02:12:05;;;;;;;4.87;4.30;;;10.40;99.90;;;;;;5039683;28;20687;-61
2024/02/27 02:14:32;;;;;;;4.50;4.10;;;10.50;99.90;;;;;;5042546;28;20699;-61
2024/02/27 02:16:59;;;;;;;5.07;4.07;;;10.50;99.90;;;;;;5043351;28;20303;-61
2024/02/27 02:19:27;;;;;;;8.33;4.30;;;10.60;99.90;;;;;;5044275;28;20205;-61
2024/02/27 02:21:56;;;;;;;6.40;4.43;;;10.50;99.90;;;;;;5043691;28;20224;-60
2024/02/27 02:24:25;;;;;;;6.20;4.30;;;10.40;99.90;;;;;;5045351;28;20226;-61
2024/02/27 02:26:53;;;;;;;5.67;4.20;;;10.40;99.90;;;;;;5047306;28;20210;-61
2024/02/27 02:29:20;;;;;;;5.60;4.20;;;10.40;99.90;;;;;;5045622;28;20206;-61
2024/02/27 02:31:46;;;;;;;4.63;3.80;;;10.50;99.90;;;;;;5043626;28;20206;-60
2024/02/27 02:34:13;;;;;;;5.60;4.27;;;10.50;99.90;;;;;;5043998;28;20226;-61
2024/02/27 02:36:42;;;;;;;7.03;4.80;;;10.50;99.90;;;;;;5047169;28;20201;-61
2024/02/27 02:39:10;;;;;;;5.93;4.53;;;10.40;99.90;;;;;;5046971;28;20205;-60
2024/02/27 02:41:37;;;;;;;6.70;4.33;;;10.40;99.90;;;;;;5035051;28;20213;-61
2024/02/27 02:44:03;;;;;;;7.87;4.63;;;10.50;99.90;;;;;;5043358;28;20695;-62
2024/02/27 02:46:30;;;;;;;5.27;4.30;;;10.50;99.90;;;;;;5046090;28;22435;-62
2024/02/27 02:49:00;;;;;;;5.83;4.40;;;10.40;99.90;;;;;;5047057;28;20209;-62
2024/02/27 02:51:27;;;;;;;6.77;4.77;;;10.50;99.90;;;;;;5044132;28;20209;-62
2024/02/27 02:53:54;;;;;;;8.80;4.73;;;10.50;99.90;;;;;;5043305;28;20223;-62
2024/02/27 02:56:22;;;;;;;7.67;4.63;;;10.50;99.90;;;;;;5044677;28;20654;-62
2024/02/27 02:58:49;;;;;;;7.23;4.33;;;10.50;99.90;;;;;;5046956;28;20201;-61
2024/02/27 03:01:15;;;;;;;7.07;4.60;;;10.50;99.90;;;;;;5045772;28;20630;-62
2024/02/27 03:03:42;;;;;;;6.43;5.37;;;10.50;99.90;;;;;;5043206;28;20229;-62
2024/02/27 03:06:09;;;;;;;6.87;4.57;;;10.60;99.90;;;;;;5043070;28;20264;-60
2024/02/27 03:08:36;;;;;;;6.20;4.23;;;10.60;99.90;;;;;;5034765;28;20615;-62
2024/02/27 03:11:03;;;;;;;6.50;5.17;;;10.60;99.90;;;;;;5042978;28;20811;-62
2024/02/27 03:13:31;;;;;;;5.63;4.70;;;10.70;99.90;;;;;;5045520;28;20223;-62
2024/02/27 03:15:57;;;;;;;7.23;4.73;;;10.60;99.90;;;;;;5046233;28;20690;-62
2024/02/27 03:18:24;;;;;;;6.10;4.73;;;10.60;99.90;;;;;;5044491;28;20205;-62
2024/02/27 03:20:51;;;;;;;7.13;5.20;;;10.50;99.90;;;;;;5043160;28;20206;-62
2024/02/27 03:23:17;;;;;;;6.23;4.13;;;10.40;99.90;;;;;;5042956;28;20230;-61
2024/02/27 03:25:44;;;;;;;6.40;4.93;;;10.30;99.90;;;;;;5046116;28;20205;-62
2024/02/27 03:28:10;;;;;;;7.10;5.20;;;10.30;99.90;;;;;;5046264;28;20205;-62
2024/02/27 03:30:39;;;;;;;7.10;4.57;;;10.30;99.90;;;;;;5034337;28;20664;-60
2024/02/27 03:33:05;;;;;;;7.03;5.00;;;10.30;99.90;;;;;;5042427;28;20225;-60
2024/02/27 03:35:32;;;;;;;6.87;4.60;;;10.30;99.90;;;;;;5045183;28;20218;-62
2024/02/27 03:37:58;;;;;;;6.43;4.97;;;10.30;99.90;;;;;;5045857;28;20305;-62
2024/02/27 03:40:25;;;;;;;6.23;4.70;;;10.40;99.90;;;;;;5044017;28;20604;-62
2024/02/27 03:42:52;;;;;;;7.00;4.60;;;10.40;99.90;;;;;;5042254;28;20223;-61
2024/02/27 03:45:19;;;;;;;6.97;4.93;;;10.40;99.90;;;;;;5043145;28;20694;-62
2024/02/27 03:47:47;;;;;;;6.63;4.73;;;10.50;99.90;;;;;;5045849;28;20210;-62
2024/02/27 03:50:13;;;;;;;6.17;4.87;;;10.60;99.90;;;;;;5045419;28;20209;-62
2024/02/27 03:52:42;;;;;;;7.83;5.10;;;10.60;99.90;;;;;;5042084;28;20210;-62
2024/02/27 03:55:09;;;;;;;6.13;4.90;;;10.60;99.90;;;;;;5042349;28;20296;-62
2024/02/27 03:57:36;;;;;;;7.37;4.97;;;10.70;99.90;;;;;;5045391;28;20209;-60
2024/02/27 04:00:04;;;;;;;7.33;5.23;;;10.50;99.90;;;;;;5045590;28;20721;-62
2024/02/27 04:02:30;;;;;;;7.93;6.00;;;10.30;99.90;;;;;;5042860;28;20210;-62
2024/02/27 04:04:58;;;;;;;7.37;6.00;;;10.20;99.90;;;;;;5074600;22;20244;-59
2024/02/27 04:07:25;;;;;;;8.57;5.80;;;10.20;99.90;;;;;;5053802;28;20251;-59
2024/02/27 04:09:52;;;;;;;6.57;5.07;;;10.20;99.90;;;;;;5053819;28;20206;-61
2024/02/27 04:12:18;;;;;;;7.77;5.53;;;10.20;99.90;;;;;;5053564;28;20212;-60
2024/02/27 04:14:45;;;;;;;9.23;5.60;;;10.30;99.90;;;;;;5045535;28;20218;-59
2024/02/27 04:17:12;;;;;;;9.73;5.73;;;10.40;99.90;;;;;;5045184;28;20210;-59
2024/02/27 04:19:38;;;;;;;8.27;5.57;;;10.50;99.90;;;;;;5045094;28;20259;-59
2024/02/27 04:22:07;;;;;;;7.23;6.03;;;10.60;99.90;;;;;;5045047;28;20579;-59
2024/02/27 04:24:33;;;;;;;11.80;6.40;;;10.50;99.90;;;;;;5042223;28;20244;-60
2024/02/27 04:27:00;;;;;;;10.53;6.60;;;10.40;99.90;;;;;;5041769;28;20218;-59
2024/02/27 04:29:27;;;;;;;8.67;6.53;;;10.20;99.90;;;;;;5043331;28;20260;-60
2024/02/27 04:31:53;;;;;;;9.40;6.93;;;9.90;99.90;;;;;;5044511;28;20618;-59
2024/02/27 04:34:20;;;;;;;10.30;6.80;;;10.10;99.90;;;;;;5043960;28;20229;-59
2024/02/27 04:36:47;;;;;;;7.97;6.83;;;10.20;99.90;;;;;;5041321;28;20676;-59
2024/02/27 04:39:16;;;;;;;10.57;6.80;;;10.20;99.90;;;;;;5041530;28;20293;-59
2024/02/27 04:41:42;;;;;;;9.73;6.97;;;10.20;99.90;;;;;;5043877;28;20795;-60
2024/02/27 04:44:11;;;;;;;8.53;7.00;;;10.30;99.90;;;;;;5044673;28;20221;-59
2024/02/27 04:46:38;;;;;;;9.83;7.23;;;10.40;99.90;;;;;;5041056;28;20202;-60
2024/02/27 04:49:05;;;;;;;11.87;7.60;;;10.30;99.90;;;;;;5041391;28;20206;-58
2024/02/27 04:51:31;;;;;;;10.47;6.90;;;10.30;99.90;;;;;;5043026;28;20206;-60
2024/02/27 04:53:58;;;;;;;12.17;7.00;;;10.20;99.90;;;;;;5044624;28;20221;-59
2024/02/27 04:56:26;;;;;;;11.37;7.20;;;10.20;99.90;;;;;;5042894;28;20565;-59
2024/02/27 04:58:53;;;;;;;10.40;7.83;;;10.10;99.90;;;;;;5041239;28;20577;-59
2024/02/27 05:01:20;;;;;;;9.30;7.57;;;10.00;99.90;;;;;;5041791;28;20206;-59
2024/02/27 05:03:46;;;;;;;11.20;8.13;;;10.00;99.90;;;;;;5044167;28;20717;-59
2024/02/27 05:06:13;;;;;;;10.13;7.17;;;9.90;99.90;;;;;;5044502;28;20213;-58
2024/02/27 05:08:40;;;;;;;9.60;7.77;;;9.90;99.90;;;;;;5032905;28;20206;-59
2024/02/27 05:11:07;;;;;;;11.13;7.87;;;9.90;99.90;;;;;;5040643;28;20694;-60
2024/02/27 05:13:35;;;;;;;11.40;7.83;;;9.90;99.90;;;;;;5042992;28;20268;-59
2024/02/27 05:16:01;;;;;;;10.33;7.93;;;9.90;99.90;;;;;;5043997;28;20213;-58
2024/02/27 05:18:28;;;;;;;10.13;7.50;;;9.80;99.90;;;;;;5041935;28;20694;-60
2024/02/27 05:20:55;;;;;;;11.47;8.03;;;9.70;99.90;;;;;;5040640;28;20210;-60
2024/02/27 05:23:22;;;;;;;9.80;7.80;;;9.60;99.90;;;;;;5040973;28;20715;-60
2024/02/27 05:25:48;;;;;;;12.63;7.77;;;9.70;99.90;;;;;;5043999;28;20247;-61
2024/02/27 05:28:15;;;;;;;11.57;7.67;;;9.60;99.90;;;;;;5043941;28;20209;-57
2024/02/27 05:30:44;;;;;;;10.60;8.03;;;9.60;99.90;;;;;;5040492;28;20210;-59
2024/02/27 05:33:11;;;;;;;12.43;9.10;;;9.60;99.90;;;;;;5040124;28;20708;-61
2024/02/27 05:35:37;;;;;;;9.37;7.60;;;9.60;99.90;;;;;;5043727;28;20256;-59
2024/02/27 05:38:04;;;;;;;10.43;7.87;;;9.50;99.90;;;;;;5043787;28;20213;-59
2024/02/27 05:40:31;;;;;;;11.93;8.40;;;9.40;99.90;;;;;;5041637;28;20256;-59
2024/02/27 05:42:58;;;;;;;12.30;8.93;;;9.30;99.90;;;;;;5039914;28;20217;-59
2024/02/27 05:45:25;;;;;;;13.10;8.17;;;9.30;99.90;;;;;;5041480;28;20226;-59
2024/02/27 05:47:53;;;;;;;9.20;7.70;;;9.30;99.90;;;;;;5043533;28;20251;-59
2024/02/27 05:50:19;;;;;;;9.47;7.40;;;9.30;99.90;;;;;;5042949;28;20213;-59
2024/02/27 05:52:47;;;;;;;10.90;8.03;;;9.10;99.90;;;;;;5039559;28;20252;-59
2024/02/27 05:55:14;;;;;;;12.07;8.33;;;9.00;99.90;;;;;;5040226;28;20205;-59
2024/02/27 05:57:41;;;;;;;9.80;8.47;;;9.10;99.90;;;;;;5043504;28;20331;-59
2024/02/27 06:00:08;;;;;;;11.70;8.37;;;9.30;99.90;;;;;;5043654;28;20202;-60
2024/02/27 06:02:36;;;;;;;10.73;8.03;;;9.30;99.90;;;;;;5040626;28;20206;-59
2024/02/27 06:05:04;;;;;;;11.23;7.93;;;9.30;99.90;;;;;;5040077;28;20240;-59
2024/02/27 06:07:31;;;;;;;14.20;9.07;;;9.20;99.90;;;;;;5040182;28;20223;-59
2024/02/27 06:09:57;;;;;;;11.73;9.10;;;9.20;99.90;;;;;;5039839;28;20210;-60
2024/02/27 06:12:24;;;;;;;11.33;8.47;;;9.20;99.90;;;;;;5040680;28;20595;-60
2024/02/27 06:14:51;;;;;;;14.33;9.57;;;9.40;99.90;;;;;;5043266;28;20271;-59
2024/02/27 06:17:18;;;;;;;12.93;9.60;;;9.40;99.90;;;;;;5043080;28;20205;-59
2024/02/27 06:19:49;;;;;;;13.27;9.30;;;9.50;99.90;;;;;;5039938;28;20213;-58
2024/02/27 06:22:19;;;;;;;13.47;9.20;;;9.50;99.90;;;;;;5039487;28;20225;-59
2024/02/27 06:24:45;;;;;;;11.77;8.93;;;9.60;99.90;;;;;;5031884;28;20226;-59
2024/02/27 06:27:12;;;;;;;15.13;10.17;;;9.60;99.90;;;;;;5040194;28;20213;-59
2024/02/27 06:29:39;;;;;;;13.07;9.20;;;9.70;99.90;;;;;;5042550;28;20202;-58
2024/02/27 06:32:09;;;;;;;12.93;9.00;;;9.80;99.90;;;;;;5043027;28;20210;-59
2024/02/27 06:34:36;;;;;;;12.80;9.37;;;9.60;99.90;;;;;;5040656;28;20230;-59
2024/02/27 06:37:03;;;;;;;11.30;9.00;;;9.60;99.90;;;;;;5039592;28;20214;-59
2024/02/27 06:39:31;;;;;;;13.13;9.90;;;9.70;99.90;;;;;;5041693;28;20264;-59
2024/02/27 06:41:58;;;;;;;11.50;9.57;;;9.80;99.90;;;;;;5042946;28;20210;-59
2024/02/27 06:44:25;;;;;;;13.30;9.83;;;9.80;99.90;;;;;;5041854;28;20226;-60
2024/02/27 06:46:51;;;;;;;12.47;10.10;;;9.80;99.90;;;;;;5039944;28;20210;-59
2024/02/27 06:49:18;;;;;;;13.03;9.97;;;9.80;99.90;;;;;;5038981;28;20207;-59
2024/02/27 06:51:46;;;;;;;13.10;10.23;;;9.80;99.90;;;;;;5042578;28;20197;-59
2024/02/27 06:54:13;;;;;;;14.87;10.53;;;9.90;99.90;;;;;;5043040;28;20218;-60
2024/02/27 06:56:41;;;;;;;12.40;10.23;;;9.90;99.90;;;;;;5039718;28;20760;-59
2024/02/27 06:59:07;;;;;;;12.33;9.53;;;9.80;99.90;;;;;;5039423;28;20676;-59
2024/02/27 07:01:34;;;;;;;13.87;9.43;;;9.80;99.90;;;;;;5041621;28;20691;-60
2024/02/27 07:04:01;;;;;;;12.50;9.90;;;9.80;99.90;;;;;;5042928;28;20324;-60
2024/02/27 07:06:28;;;;;;;13.50;9.57;;;9.80;99.90;;;;;;5045223;28;20213;-60
2024/02/27 07:08:55;;;;;;;14.37;9.93;;;9.80;99.90;;;;;;5042856;28;20687;-60
2024/02/27 07:11:22;;;;;;;12.23;9.57;;;9.80;99.90;;;;;;5043109;28;20718;-60
2024/02/27 07:13:50;;;;;;;13.43;9.50;;;9.80;99.90;;;;;;5046167;28;20226;-59
2024/02/27 07:16:16;;;;;;;12.50;10.10;;;9.70;99.90;;;;;;5046317;28;20213;-60
2024/02/27 07:18:43;;;;;;;12.37;10.00;;;9.70;99.90;;;;;;5042644;28;20289;-60
2024/02/27 07:21:10;;;;;;;13.47;9.83;;;9.60;99.90;;;;;;5042819;28;20214;-59
2024/02/27 07:23:36;;;;;;;12.93;9.97;;;9.70;99.90;;;;;;5045066;28;20234;-60
2024/02/27 07:26:03;;;;;;;15.00;10.90;;;9.70;99.90;;;;;;5046590;28;20225;-60
2024/02/27 07:28:30;;;;;;;14.53;10.60;;;9.70;99.90;;;;;;5044400;28;20263;-58
2024/02/27 07:30:58;;;;;;;12.63;9.93;;;9.80;99.90;;;;;;5042670;28;20202;-59
2024/02/27 07:33:25;;;;;;;14.47;10.17;;;9.90;99.90;;;;;;5042905;28;20226;-60
2024/02/27 07:35:51;;;;;;;13.27;10.20;;;9.90;99.90;;;;;;5046238;28;20368;-60
2024/02/27 07:38:18;;;;;;;12.43;9.63;;;9.90;99.90;;;;;;5045884;28;20695;-60
2024/02/27 07:40:45;;;;;;;12.27;10.23;;;9.90;99.90;;;;;;5034445;28;20206;-59
2024/02/27 07:43:11;;;;;;;13.17;9.90;;;10.10;99.90;;;;;;5042103;28;20222;-60
2024/02/27 07:45:38;;;;;;;14.37;10.63;;;10.30;99.90;;;;;;5044644;28;20222;-58
2024/02/27 07:48:07;;;;;;;15.10;9.10;;;10.40;99.90;;;;;;5045535;28;20670;-59
2024/02/27 07:50:34;;;;;;;12.33;9.60;;;10.40;99.90;;;;;;5043620;28;20216;-59
2024/02/27 07:53:00;;;;;;;13.97;9.63;;;10.60;99.90;;;;;;5041541;28;20262;-59
2024/02/27 07:55:27;;;;;;;12.83;10.03;;;10.70;99.90;;;;;;5043083;28;20217;-59
2024/02/27 07:57:54;;;;;;;12.40;9.77;;;10.60;99.90;;;;;;5045303;28;20208;-60
2024/02/27 08:00:21;;;;;;;15.10;9.80;;;10.70;99.90;;;;;;5045087;28;20210;-57
2024/02/27 08:02:47;;;;;;;13.67;10.27;;;10.80;99.90;;;;;;5041883;28;20211;-59
2024/02/27 08:05:15;;;;;;;12.20;9.73;;;10.70;99.90;;;;;;5041836;28;20699;-60
2024/02/27 08:07:42;;;;;;;14.43;10.27;;;10.60;99.90;;;;;;5044753;28;20578;-60
2024/02/27 08:10:09;;;;;;;12.27;10.00;;;10.40;99.90;;;;;;5045130;28;20697;-59
2024/02/27 08:12:36;;;;;;;13.63;10.33;;;10.60;99.90;;;;;;5042443;28;20213;-60
2024/02/27 08:15:03;;;;;;;14.27;10.50;;;10.80;99.90;;;;;;5041235;28;20230;-58
2024/02/27 08:17:30;;;;;;;13.53;9.63;;;11.00;99.90;;;;;;5042401;28;20210;-59
2024/02/27 08:19:57;;;;;;;15.50;10.27;;;11.20;99.90;;;;;;5045346;28;20205;-60
2024/02/27 08:22:25;;;;;;;15.10;10.10;;;11.20;99.90;;;;;;5043996;28;20690;-58
2024/02/27 08:24:52;;;;;;;13.43;10.20;;;11.30;99.90;;;;;;5041173;28;20222;-59
2024/02/27 08:27:18;;;;;;;20.00;14.97;;;11.60;99.90;;;;;;5041868;28;20207;-60
2024/02/27 08:29:45;;;;;;;12.53;9.83;;;11.70;99.90;;;;;;5044410;28;20197;-59
2024/02/27 08:32:12;;;;;;;13.53;10.13;;;11.70;99.90;;;;;;5044606;28;20205;-59
2024/02/27 08:34:38;;;;;;;11.57;9.50;;;11.30;99.90;;;;;;5041866;28;20582;-60
2024/02/27 08:37:05;;;;;;;14.10;10.07;;;11.00;99.90;;;;;;5041229;28;20578;-59
2024/02/27 08:39:33;;;;;;;14.80;10.43;;;10.90;99.90;;;;;;5042685;28;20298;-59
2024/02/27 08:42:00;;;;;;;12.77;10.50;;;10.80;99.90;;;;;;5044180;28;20293;-59
2024/02/27 08:44:27;;;;;;;14.47;10.27;;;11.00;99.90;;;;;;5043655;28;20233;-59
2024/02/27 08:46:53;;;;;;;13.80;9.97;;;11.10;99.90;;;;;;5041110;28;20206;-58
2024/02/27 08:49:20;;;;;;;13.00;10.23;;;11.10;99.90;;;;;;5041287;28;20213;-59
2024/02/27 08:51:47;;;;;;;16.30;10.23;;;11.10;99.90;;;;;;5032802;28;20210;-59
2024/02/27 08:54:14;;;;;;;14.40;10.17;;;11.10;99.90;;;;;;5040939;28;20230;-59
2024/02/27 08:56:42;;;;;;;14.43;11.13;;;11.20;99.90;;;;;;5043394;28;20672;-59
2024/02/27 08:59:09;;;;;;;13.67;10.43;;;11.30;99.90;;;;;;5044362;28;20201;-59
2024/02/27 09:01:36;;;;;;;15.30;10.70;;;11.40;99.90;;;;;;5041936;28;20209;-59
2024/02/27 09:04:02;;;;;;;13.40;10.80;;;11.50;99.90;;;;;;5040570;28;20296;-59
2024/02/27 09:06:29;;;;;;;13.30;10.33;;;11.60;99.90;;;;;;5041610;28;20226;-59
2024/02/27 09:08:56;;;;;;;14.03;11.03;;;11.80;99.90;;;;;;5043926;28;20259;-59
2024/02/27 09:11:23;;;;;;;13.47;11.07;;;11.90;99.90;;;;;;5043210;28;20209;-58
2024/02/27 09:13:50;;;;;;;13.93;10.67;;;11.80;99.90;;;;;;5040682;28;20226;-59
2024/02/27 09:16:17;;;;;;;15.03;11.87;;;11.80;99.90;;;;;;5040486;28;20202;-59
2024/02/27 09:18:45;;;;;;;13.77;10.57;;;11.80;99.90;;;;;;5043752;28;20221;-58
2024/02/27 09:21:13;;;;;;;14.70;11.10;;;11.70;99.90;;;;;;5043654;28;20228;-59
2024/02/27 09:23:39;;;;;;;16.80;11.63;;;11.70;99.90;;;;;;5041032;28;20222;-59
2024/02/27 09:26:06;;;;;;;15.00;11.73;;;11.70;99.90;;;;;;5040430;28;20221;-58
2024/02/27 09:28:33;;;;;;;14.87;10.63;;;11.60;99.90;;;;;;5041660;28;20213;-59
2024/02/27 09:31:04;;;;;;;14.53;11.53;;;11.60;99.90;;;;;;5043866;28;20292;-58
2024/02/27 09:33:31;;;;;;;16.03;12.10;;;11.70;99.90;;;;;;5041987;28;20283;-59
2024/02/27 09:35:57;;;;;;;14.13;11.43;;;11.80;99.90;;;;;;5040040;28;20230;-59
2024/02/27 09:38:24;;;;;;;15.93;12.00;;;11.80;99.90;;;;;;5040402;28;20217;-59
2024/02/27 09:40:54;;;;;;;15.00;11.60;;;11.90;99.90;;;;;;5043598;28;20205;-59
2024/02/27 09:43:23;;;;;;;14.73;11.87;;;11.90;99.90;;;;;;5043033;28;20225;-58
2024/02/27 09:45:50;;;;;;;16.50;12.13;;;12.00;99.90;;;;;;5040017;28;20628;-59
2024/02/27 09:48:19;;;;;;;15.00;11.93;;;12.00;99.90;;;;;;5040147;28;20260;-59
2024/02/27 09:50:48;;;;;;;16.83;11.60;;;12.10;99.90;;;;;;5042798;28;20205;-59
2024/02/27 09:53:17;;;;;;;15.00;11.30;;;12.20;99.90;;;;;;5037542;28;20664;-58
2024/02/27 09:55:45;;;;;;;17.83;12.23;;;12.20;99.90;;;;;;5042811;28;20198;-60
2024/02/27 09:58:12;;;;;;;16.20;11.77;;;12.30;99.90;;;;;;5043338;28;20205;-60
2024/02/27 10:00:38;;;;;;;15.53;12.27;;;12.60;99.90;;;;;;5041107;28;20201;-60
2024/02/27 10:03:08;;;;;;;13.30;11.57;;;12.70;99.90;;;;;;5038823;28;20210;-59
2024/02/27 10:05:38;;;;;;;15.67;11.40;;;12.80;99.90;;;;;;5072683;22;20265;-58
2024/02/27 10:08:09;;;;;;;13.57;11.53;;;12.90;99.90;;;;;;5051639;28;20300;-63
2024/02/27 10:10:39;;;;;;;14.63;11.70;;;13.00;99.90;;;;;;5051257;28;20732;-58
2024/02/27 10:13:07;;;;;;;16.03;12.03;;;13.10;99.90;;;;;;5051120;28;20205;-58
2024/02/27 10:15:33;;;;;;;15.90;12.23;;;13.20;99.90;;;;;;5050784;28;20279;-58
2024/02/27 10:18:01;;;;;;;14.97;11.43;;;13.30;99.90;;;;;;5051054;28;20205;-58
2024/02/27 10:20:28;;;;;;;13.70;11.37;;;13.10;99.90;;;;;;5051274;28;20645;-58
2024/02/27 10:22:58;;;;;;;16.10;11.97;;;13.00;99.90;;;;;;5051225;28;20209;-58
2024/02/27 10:25:27;;;;;;;14.83;11.70;;;13.00;99.90;;;;;;5050986;28;20281;-58
2024/02/27 10:27:54;;;;;;;16.37;12.30;;;13.00;99.90;;;;;;5051187;28;20229;-58
2024/02/27 10:30:23;;;;;;;15.47;12.30;;;12.90;99.90;;;;;;5051216;28;20297;-58
2024/02/27 10:32:50;;;;;;;16.13;12.13;;;13.00;99.90;;;;;;5043086;28;20237;-58
2024/02/27 10:35:17;;;;;;;16.97;12.37;;;13.30;99.90;;;;;;5051097;28;20230;-58
2024/02/27 10:37:44;;;;;;;14.83;11.43;;;13.50;99.90;;;;;;5050650;28;20220;-59
2024/02/27 10:40:14;;;;;;;14.03;11.27;;;13.40;99.90;;;;;;5053661;28;20624;-61
2024/02/27 10:42:42;;;;;;;15.63;12.07;;;13.20;99.90;;;;;;5054717;28;20216;-60
2024/02/27 10:45:10;;;;;;;15.37;11.40;;;13.10;99.90;;;;;;5054982;28;20233;-60
2024/02/27 10:47:37;;;;;;;15.80;11.77;;;13.00;99.90;;;;;;5054940;28;20297;-61
2024/02/27 10:50:05;;;;;;;15.50;11.90;;;13.00;99.90;;;;;;5054772;28;20209;-61
2024/02/27 10:52:35;;;;;;;15.60;11.80;;;13.10;99.90;;;;;;5054465;28;20671;-62
2024/02/27 10:55:03;;;;;;;15.97;12.03;;;13.10;99.90;;;;;;5054634;28;20283;-62
2024/02/27 10:57:33;;;;;;;16.60;11.73;;;13.10;99.90;;;;;;5054365;28;20209;-62
2024/02/27 11:00:00;;;;;;;18.70;13.03;;;13.30;99.90;;;;;;5054422;28;20274;-62
2024/02/27 11:02:28;;;;;;;15.93;12.67;;;13.40;99.90;;;;;;5053901;28;20212;-62
2024/02/27 11:04:59;;;;;;;14.63;12.33;;;13.40;99.90;;;;;;5054458;28;20336;-63
2024/02/27 11:07:26;;;;;;;15.63;12.30;;;13.50;99.90;;;;;;5054186;28;20605;-62
2024/02/27 11:09:54;;;;;;;16.07;12.17;;;13.50;99.90;;;;;;5054539;28;20210;-64
2024/02/27 11:12:22;;;;;;;14.90;12.00;;;13.40;99.90;;;;;;5054380;28;20300;-61
2024/02/27 11:14:58;;;;;;;15.70;12.77;;;13.30;99.90;;;;;;5054196;28;20695;-62
2024/02/27 11:17:28;;;;;;;17.77;12.63;;;13.40;99.90;;;;;;5054430;28;20296;-61
2024/02/27 11:19:55;;;;;;;14.20;12.63;;;13.50;99.90;;;;;;5046627;28;20285;-62
2024/02/27 11:22:23;;;;;;;16.67;13.30;;;13.50;99.90;;;;;;5054030;28;20209;-60
2024/02/27 11:24:50;;;;;;;17.37;12.90;;;13.70;99.90;;;;;;5054143;28;20225;-60
2024/02/27 11:27:20;;;;;;;18.97;13.00;;;13.90;99.90;;;;;;5054271;28;20226;-60
2024/02/27 11:29:49;;;;;;;17.10;13.00;;;14.10;99.90;;;;;;5054407;28;20217;-60
2024/02/27 11:32:19;;;;;;;17.80;12.87;;;14.40;99.90;;;;;;5051832;28;20218;-62
2024/02/27 11:34:47;;;;;;;16.73;12.00;;;14.60;99.90;;;;;;5053263;28;20276;-62
2024/02/27 11:37:19;;;;;;;15.97;12.80;;;14.70;99.90;;;;;;5054011;28;20609;-61
2024/02/27 11:39:46;;;;;;;16.43;12.17;;;14.80;99.90;;;;;;5053642;28;20214;-61
2024/02/27 11:42:25;;;;;;;17.17;13.33;;;14.90;99.90;;;;;;5054087;28;20209;-60
2024/02/27 11:45:09;;;;;;;16.13;12.87;;;14.90;99.90;;;;;;5045631;28;20270;-61
2024/02/27 11:47:41;;;;;;;16.63;12.40;;;15.00;99.90;;;;;;5053524;28;20225;-60
2024/02/27 11:50:10;;;;;;;15.13;12.23;;;15.00;99.90;;;;;;5050550;28;20286;-65
2024/02/27 11:52:37;;;;;;;15.53;12.80;;;15.30;99.90;;;;;;5052750;28;20216;-59
2024/02/27 11:55:07;;;;;;;14.10;11.93;;;15.40;99.90;;;;;;5053174;28;20249;-59
2024/02/27 11:57:36;;;;;;;15.03;12.53;;;15.40;99.90;;;;;;5053408;28;20205;-59
2024/02/27 12:00:14;;;;;;;16.97;13.20;;;15.20;99.90;;;;;;5054005;28;20214;-61
2024/02/27 12:02:47;;;;;;;13.73;12.10;;;15.20;99.90;;;;;;5053149;28;20282;-60
2024/02/27 12:05:16;;;;;;;15.37;12.37;;;15.10;99.90;;;;;;5052836;28;20237;-60
2024/02/27 12:07:43;;;;;;;16.23;12.23;;;15.10;99.90;;;;;;5053114;28;20229;-60
2024/02/27 12:10:12;;;;;;;15.00;12.40;;;15.00;99.90;;;;;;5053098;28;20211;-60
2024/02/27 12:12:40;;;;;;;15.02;11.77;;;14.90;99.90;;;;;;5052607;28;20236;-60
2024/02/27 12:15:08;;;;;;;16.57;12.73;;;14.90;99.90;;;;;;5052985;28;20260;-60
2024/02/27 12:17:36;;;;;;;15.47;12.87;;;15.00;99.90;;;;;;5052770;28;20218;-60
2024/02/27 12:20:09;;;;;;;16.70;11.87;;;15.00;99.90;;;;;;5053303;28;20210;-60
2024/02/27 12:22:36;;;;;;;17.70;12.33;;;15.10;99.90;;;;;;5052658;28;20218;-60
2024/02/27 12:25:03;;;;;;;14.53;12.07;;;14.90;99.90;;;;;;5052743;28;20352;-60
2024/02/27 12:27:30;;;;;;;15.70;12.93;;;14.70;99.90;;;;;;5053009;28;20229;-60
2024/02/27 12:29:57;;;;;;;15.60;13.23;;;14.30;99.90;;;;;;5052645;28;20622;-60
2024/02/27 12:32:25;;;;;;;16.17;12.83;;;14.00;99.90;;;;;;5052750;28;20220;-60
2024/02/27 12:34:51;;;;;;;15.03;12.97;;;13.90;99.90;;;;;;5052634;28;20274;-60
2024/02/27 12:37:19;;;;;;;16.47;12.30;;;13.90;99.90;;;;;;5052833;28;20206;-60
2024/02/27 12:39:47;;;;;;;15.43;12.67;;;14.00;99.90;;;;;;5052862;28;20633;-60